Time;durP1;ratioP1;P1;durP2;ratioP2;P2;SDS_P1;SDS_P2;PMS_P1;PMS_P2;Temp;Humidity;BMP_temperature;BMP_pressure;BME280_temperature;BME280_humidity;BME280_pressure;Samples;Min_cycle;Max_cycle;Signal;HPM_P1;HPM_P2
2022/07/14 00:00:56;;;;;;;11.30;6.68;;;;;;;;;;5101232;28;20676;-61
2022/07/14 00:03:24;;;;;;;8.57;7.43;;;;;;;;;;5101161;28;20224;-61
2022/07/14 00:05:54;;;;;;;9.82;7.63;;;;;;;;;;5101590;28;20208;-61
2022/07/14 00:08:22;;;;;;;10.40;8.45;;;;;;;;;;5101044;28;20214;-61
2022/07/14 00:10:50;;;;;;;11.05;8.50;;;;;;;;;;5101337;28;20208;-61
2022/07/14 00:13:18;;;;;;;15.38;9.68;;;;;;;;;;5101215;28;20231;-61
2022/07/14 00:15:46;;;;;;;18.23;10.23;;;;;;;;;;5101061;28;20237;-61
2022/07/14 00:18:14;;;;;;;17.33;12.68;;;;;;;;;;5101288;28;20215;-61
2022/07/14 00:20:42;;;;;;;17.40;14.82;;;;;;;;;;5101308;28;20207;-61
2022/07/14 00:23:11;;;;;;;15.05;12.27;;;;;;;;;;5100743;28;20260;-61
2022/07/14 00:25:39;;;;;;;11.13;9.55;;;;;;;;;;5101055;28;20203;-61
2022/07/14 00:28:07;;;;;;;11.07;8.23;;;;;;;;;;5100901;28;20213;-61
2022/07/14 00:30:35;;;;;;;12.80;6.87;;;;;;;;;;5100741;28;20246;-61
2022/07/14 00:33:03;;;;;;;6.10;5.47;;;;;;;;;;5100908;28;20225;-61
2022/07/14 00:35:32;;;;;;;7.03;5.80;;;;;;;;;;5100651;28;20226;-61
2022/07/14 00:38:02;;;;;;;8.37;5.50;;;;;;;;;;5100580;28;20736;-61
2022/07/14 00:40:32;;;;;;;8.23;4.43;;;;;;;;;;5100528;28;20223;-61
2022/07/14 00:43:00;;;;;;;6.77;4.37;;;;;;;;;;5100355;28;20240;-61
2022/07/14 00:45:28;;;;;;;6.87;4.83;;;;;;;;;;5100314;28;20198;-61
2022/07/14 00:47:56;;;;;;;7.60;5.80;;;;;;;;;;5087025;28;20205;-61
2022/07/14 00:50:24;;;;;;;8.67;4.97;;;;;;;;;;5100383;28;20273;-61
2022/07/14 00:52:52;;;;;;;8.07;5.10;;;;;;;;;;5100257;28;20236;-61
2022/07/14 00:55:20;;;;;;;5.77;5.07;;;;;;;;;;5099983;28;20259;-61
2022/07/14 00:57:50;;;;;;;6.93;4.50;;;;;;;;;;5100260;28;20209;-61
2022/07/14 01:00:18;;;;;;;7.03;5.70;;;;;;;;;;5099690;28;20212;-61
2022/07/14 01:02:47;;;;;;;7.53;6.13;;;;;;;;;;5100387;28;20237;-61
2022/07/14 01:05:15;;;;;;;9.27;5.57;;;;;;;;;;5100363;28;20287;-61
2022/07/14 01:07:43;;;;;;;7.30;4.90;;;;;;;;;;5100346;28;20245;-61
2022/07/14 01:10:11;;;;;;;5.97;5.10;;;;;;;;;;5099915;28;20203;-61
2022/07/14 01:12:44;;;;;;;5.10;4.50;;;;;;;;;;5099973;28;20676;-61
2022/07/14 01:15:15;;;;;;;5.90;5.07;;;;;;;;;;5096452;28;20588;-61
2022/07/14 01:17:43;;;;;;;6.07;4.87;;;;;;;;;;5098409;28;20741;-61
2022/07/14 01:20:11;;;;;;;9.33;5.03;;;;;;;;;;5099097;28;20243;-61
2022/07/14 01:22:41;;;;;;;5.73;4.97;;;;;;;;;;5099040;28;20239;-61
2022/07/14 01:25:09;;;;;;;5.73;4.33;;;;;;;;;;5098903;28;20204;-61
2022/07/14 01:27:37;;;;;;;4.47;3.97;;;;;;;;;;5099347;28;20291;-61
2022/07/14 01:30:06;;;;;;;9.30;4.13;;;;;;;;;;5099269;28;20204;-61
2022/07/14 01:32:34;;;;;;;7.30;3.93;;;;;;;;;;5099355;28;20240;-61
2022/07/14 01:35:02;;;;;;;4.83;4.20;;;;;;;;;;5099237;28;20248;-61
2022/07/14 01:37:30;;;;;;;4.37;3.40;;;;;;;;;;5099519;28;20208;-61
2022/07/14 01:40:00;;;;;;;4.57;3.73;;;;;;;;;;5099348;28;20687;-61
2022/07/14 01:42:28;;;;;;;4.33;2.70;;;;;;;;;;5099175;28;20212;-61
2022/07/14 01:44:56;;;;;;;3.97;2.63;;;;;;;;;;5091100;28;20227;-61
2022/07/14 01:47:25;;;;;;;4.70;2.60;;;;;;;;;;5112419;28;20278;-61
2022/07/14 01:49:53;;;;;;;4.90;3.03;;;;;;;;;;5119805;28;20239;-61
2022/07/14 01:52:21;;;;;;;4.30;2.80;;;;;;;;;;5119455;28;20209;-61
2022/07/14 01:54:49;;;;;;;4.90;2.77;;;;;;;;;;5111899;28;20222;-61
2022/07/14 01:57:18;;;;;;;4.67;2.50;;;;;;;;;;5098942;28;20244;-61
2022/07/14 01:59:46;;;;;;;4.50;3.20;;;;;;;;;;5099143;28;20259;-61
2022/07/14 02:02:14;;;;;;;6.47;3.03;;;;;;;;;;5098652;28;20201;-61
2022/07/14 02:04:43;;;;;;;5.67;2.77;;;;;;;;;;5098887;28;20227;-60
2022/07/14 02:07:11;;;;;;;4.00;3.00;;;;;;;;;;5112131;28;20241;-60
2022/07/14 02:12:26;;;;;;;9.17;2.97;;;;;;;;;;5099044;28;20724;-60
2022/07/14 02:14:54;;;;;;;3.07;2.77;;;;;;;;;;5099780;28;20305;-60
2022/07/14 02:17:22;;;;;;;2.83;2.60;;;;;;;;;;5098343;28;20243;-60
2022/07/14 02:19:50;;;;;;;4.80;3.03;;;;;;;;;;5097551;28;20206;-60
2022/07/14 02:22:18;;;;;;;4.37;3.97;;;;;;;;;;5098156;28;20261;-60
2022/07/14 02:24:46;;;;;;;13.03;8.30;;;;;;;;;;5097720;28;20246;-60
2022/07/14 02:27:14;;;;;;;13.63;7.47;;;;;;;;;;5099815;28;20202;-60
2022/07/14 02:29:43;;;;;;;11.27;7.43;;;;;;;;;;5100292;28;20237;-60
2022/07/14 02:32:11;;;;;;;10.47;7.17;;;;;;;;;;5097882;28;20209;-60
2022/07/14 02:34:39;;;;;;;8.80;6.00;;;;;;;;;;5096441;28;20254;-60
2022/07/14 02:37:07;;;;;;;8.93;5.70;;;;;;;;;;5098575;28;20199;-60
2022/07/14 02:39:35;;;;;;;10.10;5.30;;;;;;;;;;5097930;28;20195;-60
2022/07/14 02:42:03;;;;;;;6.93;4.67;;;;;;;;;;5098672;28;20569;-60
2022/07/14 02:44:31;;;;;;;9.00;4.77;;;;;;;;;;5101011;28;20592;-60
2022/07/14 02:47:01;;;;;;;4.73;4.27;;;;;;;;;;5097617;28;20216;-60
2022/07/14 02:49:29;;;;;;;6.83;5.03;;;;;;;;;;5098315;28;20218;-60
2022/07/14 02:51:57;;;;;;;8.67;4.03;;;;;;;;;;5098935;28;20564;-60
2022/07/14 02:54:25;;;;;;;6.07;4.63;;;;;;;;;;5097079;28;20283;-60
2022/07/14 02:56:53;;;;;;;4.83;4.23;;;;;;;;;;5097099;28;20257;-60
2022/07/14 02:59:21;;;;;;;6.50;3.70;;;;;;;;;;5098138;28;20220;-60
2022/07/14 03:01:49;;;;;;;7.83;3.60;;;;;;;;;;5098360;28;20244;-60
2022/07/14 03:04:19;;;;;;;4.27;3.87;;;;;;;;;;5096621;28;20696;-60
2022/07/14 03:06:47;;;;;;;5.37;3.50;;;;;;;;;;5093834;28;20200;-60
2022/07/14 03:09:16;;;;;;;7.53;3.97;;;;;;;;;;5097076;28;20198;-60
2022/07/14 03:11:44;;;;;;;6.27;3.73;;;;;;;;;;5098063;28;20236;-60
2022/07/14 03:14:12;;;;;;;5.17;3.70;;;;;;;;;;5097230;28;20765;-60
2022/07/14 03:16:40;;;;;;;9.43;3.70;;;;;;;;;;5097346;28;20263;-60
2022/07/14 03:19:08;;;;;;;4.43;3.23;;;;;;;;;;5097904;28;20244;-60
2022/07/14 03:21:37;;;;;;;6.23;3.90;;;;;;;;;;5097720;28;20211;-61
2022/07/14 03:24:06;;;;;;;3.93;3.10;;;;;;;;;;5097440;28;20256;-60
2022/07/14 03:26:35;;;;;;;3.60;3.30;;;;;;;;;;5097548;28;20263;-60
2022/07/14 03:29:03;;;;;;;4.50;3.30;;;;;;;;;;5097721;28;20239;-60
2022/07/14 03:31:31;;;;;;;5.93;3.50;;;;;;;;;;5097792;28;20239;-60
2022/07/14 03:33:59;;;;;;;3.40;3.10;;;;;;;;;;5097606;28;20758;-60
2022/07/14 03:36:28;;;;;;;4.53;3.13;;;;;;;;;;5097687;28;20286;-60
2022/07/14 03:39:06;;;;;;;4.53;3.07;;;;;;;;;;5097955;28;20209;-60
2022/07/14 03:41:34;;;;;;;5.07;4.30;;;;;;;;;;5097880;28;20205;-60
2022/07/14 03:44:02;;;;;;;3.30;3.00;;;;;;;;;;5097788;28;20239;-60
2022/07/14 03:46:29;;;;;;;3.67;3.03;;;;;;;;;;5094983;28;20205;-60
2022/07/14 03:48:58;;;;;;;4.50;3.23;;;;;;;;;;5096516;28;20284;-60
2022/07/14 03:51:26;;;;;;;8.70;3.53;;;;;;;;;;5097844;28;20268;-60
2022/07/14 03:53:54;;;;;;;4.67;2.97;;;;;;;;;;5097369;28;20267;-60
2022/07/14 03:56:23;;;;;;;3.77;3.03;;;;;;;;;;5097751;28;20225;-60
2022/07/14 03:58:51;;;;;;;4.33;3.10;;;;;;;;;;5097466;28;20212;-60
2022/07/14 04:01:19;;;;;;;4.83;3.00;;;;;;;;;;5097548;28;20217;-60
2022/07/14 04:03:47;;;;;;;5.27;3.13;;;;;;;;;;5097583;28;20230;-60
2022/07/14 04:06:15;;;;;;;3.77;2.53;;;;;;;;;;5097680;28;20229;-60
2022/07/14 04:08:44;;;;;;;3.50;2.90;;;;;;;;;;5097784;28;20240;-60
2022/07/14 04:11:12;;;;;;;4.27;2.97;;;;;;;;;;5097619;28;20239;-61
2022/07/14 04:13:42;;;;;;;4.87;3.13;;;;;;;;;;5096506;28;20225;-60
2022/07/14 04:16:10;;;;;;;4.37;2.80;;;;;;;;;;5109781;28;20217;-59
2022/07/14 04:18:38;;;;;;;7.50;3.10;;;;;;;;;;5118288;28;20236;-61
2022/07/14 04:21:08;;;;;;;4.27;3.13;;;;;;;;;;5119579;28;20215;-60
2022/07/14 04:23:37;;;;;;;5.90;3.17;;;;;;;;;;5111135;28;20252;-59
2022/07/14 04:26:07;;;;;;;4.93;3.57;;;;;;;;;;5098878;28;20637;-59
2022/07/14 04:28:35;;;;;;;3.43;3.13;;;;;;;;;;5099090;28;20669;-60
2022/07/14 04:31:06;;;;;;;6.40;3.37;;;;;;;;;;5099155;28;20631;-60
2022/07/14 04:33:35;;;;;;;3.80;3.33;;;;;;;;;;5100916;28;20756;-60
2022/07/14 04:36:03;;;;;;;7.40;3.80;;;;;;;;;;5100658;28;20230;-60
2022/07/14 04:38:31;;;;;;;4.23;3.40;;;;;;;;;;5101076;28;20216;-60
2022/07/14 04:41:00;;;;;;;5.40;3.30;;;;;;;;;;5100744;28;20272;-60
2022/07/14 04:43:28;;;;;;;5.27;3.00;;;;;;;;;;5100640;28;20708;-60
2022/07/14 04:45:56;;;;;;;6.27;3.37;;;;;;;;;;5100312;28;20687;-60
2022/07/14 04:48:26;;;;;;;5.37;2.90;;;;;;;;;;5100690;28;20606;-60
2022/07/14 04:53:39;;;;;;;4.10;3.00;;;;;;;;;;5099969;28;20232;-60
2022/07/14 04:56:07;;;;;;;4.40;3.10;;;;;;;;;;5100697;28;20688;-60
2022/07/14 04:58:35;;;;;;;6.53;3.07;;;;;;;;;;5099334;28;20236;-59
2022/07/14 05:01:03;;;;;;;4.63;3.10;;;;;;;;;;5101700;28;20266;-60
2022/07/14 05:03:34;;;;;;;7.67;3.60;;;;;;;;;;5099135;28;20222;-59
2022/07/14 05:06:02;;;;;;;6.23;4.27;;;;;;;;;;5099695;28;20226;-59
2022/07/14 05:08:30;;;;;;;7.73;5.10;;;;;;;;;;5096708;28;20625;-60
2022/07/14 05:10:58;;;;;;;9.17;4.37;;;;;;;;;;5100340;28;20195;-60
2022/07/14 05:13:26;;;;;;;6.27;3.83;;;;;;;;;;5099122;28;20218;-60
2022/07/14 05:15:54;;;;;;;4.30;2.93;;;;;;;;;;5098735;28;20236;-60
2022/07/14 05:18:22;;;;;;;4.33;3.33;;;;;;;;;;5102578;28;20254;-59
2022/07/14 05:20:52;;;;;;;5.10;3.47;;;;;;;;;;5120657;28;20231;-59
2022/07/14 05:23:27;;;;;;;5.73;3.80;;;;;;;;;;5113137;28;20620;-59
2022/07/14 05:25:55;;;;;;;5.07;3.67;;;;;;;;;;5099988;28;20210;-60
2022/07/14 05:28:23;;;;;;;4.67;3.73;;;;;;;;;;5099733;28;20698;-60
2022/07/14 05:30:55;;;;;;;6.93;4.63;;;;;;;;;;5098925;28;20239;-60
2022/07/14 05:33:23;;;;;;;9.07;5.37;;;;;;;;;;5099031;28;20225;-60
2022/07/14 05:35:52;;;;;;;12.03;5.20;;;;;;;;;;5100496;28;20248;-60
2022/07/14 05:38:20;;;;;;;8.57;4.70;;;;;;;;;;5105926;28;20209;-59
2022/07/14 05:40:48;;;;;;;8.73;5.43;;;;;;;;;;5106566;28;20205;-59
2022/07/14 05:43:16;;;;;;;6.80;4.83;;;;;;;;;;5104430;28;20213;-59
2022/07/14 05:45:44;;;;;;;6.43;4.77;;;;;;;;;;5098756;28;20226;-60
2022/07/14 05:48:12;;;;;;;7.67;5.43;;;;;;;;;;5096788;28;20657;-60
2022/07/14 05:50:40;;;;;;;5.17;4.50;;;;;;;;;;5099515;28;20201;-60
2022/07/14 05:53:10;;;;;;;9.53;5.13;;;;;;;;;;5096231;28;20282;-60
2022/07/14 05:55:38;;;;;;;9.47;5.00;;;;;;;;;;5100753;28;20229;-60
2022/07/14 05:58:06;;;;;;;7.83;5.13;;;;;;;;;;5099183;28;20247;-60
2022/07/14 06:00:34;;;;;;;7.83;4.80;;;;;;;;;;5101077;28;20203;-61
2022/07/14 06:03:03;;;;;;;8.77;5.97;;;;;;;;;;5098825;28;20219;-60
2022/07/14 06:05:33;;;;;;;5.33;4.83;;;;;;;;;;5097144;28;20199;-58
2022/07/14 06:08:01;;;;;;;6.40;5.37;;;;;;;;;;5102920;28;20297;-60
2022/07/14 06:10:31;;;;;;;6.07;5.40;;;;;;;;;;5102988;28;20220;-60
2022/07/14 06:12:59;;;;;;;7.73;5.53;;;;;;;;;;5097006;28;20209;-60
2022/07/14 06:15:27;;;;;;;8.50;5.50;;;;;;;;;;5099306;28;20265;-60
2022/07/14 06:17:55;;;;;;;6.93;5.47;;;;;;;;;;5098276;28;20224;-60
2022/07/14 06:20:23;;;;;;;8.43;5.90;;;;;;;;;;5100667;28;20209;-60
2022/07/14 06:22:51;;;;;;;10.57;6.13;;;;;;;;;;5100610;28;20243;-60
2022/07/14 06:25:19;;;;;;;10.80;6.20;;;;;;;;;;5098373;28;20196;-60
2022/07/14 06:27:48;;;;;;;9.47;5.73;;;;;;;;;;5098917;28;20650;-61
2022/07/14 06:30:16;;;;;;;8.43;5.37;;;;;;;;;;5096265;28;20228;-60
2022/07/14 06:32:44;;;;;;;6.00;5.03;;;;;;;;;;5100553;28;20201;-60
2022/07/14 06:35:12;;;;;;;8.70;5.07;;;;;;;;;;5097930;28;20196;-60
2022/07/14 06:37:40;;;;;;;9.77;5.53;;;;;;;;;;5098330;28;20723;-60
2022/07/14 06:40:08;;;;;;;6.47;4.90;;;;;;;;;;5098267;28;20711;-60
2022/07/14 06:42:36;;;;;;;6.07;5.47;;;;;;;;;;5097974;28;20215;-59
2022/07/14 06:45:06;;;;;;;6.80;4.77;;;;;;;;;;5098325;28;20221;-59
2022/07/14 06:47:36;;;;;;;6.73;5.23;;;;;;;;;;5098111;28;20612;-60
2022/07/14 06:50:04;;;;;;;12.20;5.17;;;;;;;;;;5098351;28;20203;-60
2022/07/14 06:52:32;;;;;;;10.23;4.60;;;;;;;;;;5098136;28;20256;-59
2022/07/14 06:55:01;;;;;;;7.23;4.77;;;;;;;;;;5097924;28;20667;-59
2022/07/14 06:57:29;;;;;;;12.97;4.60;;;;;;;;;;5098092;28;20746;-59
2022/07/14 06:59:57;;;;;;;5.53;4.37;;;;;;;;;;5097889;28;20210;-59
2022/07/14 07:02:26;;;;;;;6.37;4.27;;;;;;;;;;5098046;28;20229;-59
2022/07/14 07:07:36;;;;;;;4.40;2.97;;;;;;;;;;5097804;28;20239;-59
2022/07/14 07:10:05;;;;;;;4.13;3.00;;;;;;;;;;5097869;28;20243;-59
2022/07/14 07:12:33;;;;;;;4.13;2.70;;;;;;;;;;5098022;28;20247;-59
2022/07/14 07:15:01;;;;;;;4.63;3.10;;;;;;;;;;5097742;28;20319;-59
2022/07/14 07:17:30;;;;;;;3.70;2.60;;;;;;;;;;5098085;28;20277;-59
2022/07/14 07:19:58;;;;;;;3.33;2.73;;;;;;;;;;5097971;28;20229;-59
2022/07/14 07:22:26;;;;;;;3.23;3.03;;;;;;;;;;5097881;28;20249;-59
2022/07/14 07:24:54;;;;;;;2.97;2.73;;;;;;;;;;5097616;28;21912;-59
2022/07/14 07:27:22;;;;;;;4.60;2.97;;;;;;;;;;5098208;28;20242;-59
2022/07/14 07:29:50;;;;;;;5.00;3.40;;;;;;;;;;5097720;28;20640;-59
2022/07/14 07:32:18;;;;;;;3.20;2.85;;;;;;;;;;5097547;28;20231;-59
2022/07/14 07:34:47;;;;;;;3.25;3.00;;;;;;;;;;5097574;28;20701;-59
2022/07/14 07:37:15;;;;;;;5.53;3.13;;;;;;;;;;5097944;28;20249;-59
2022/07/14 07:39:54;;;;;;;4.95;3.20;;;;;;;;;;5097648;28;20212;-59
2022/07/14 07:42:22;;;;;;;5.88;3.30;;;;;;;;;;5097549;28;20212;-59
2022/07/14 07:44:50;;;;;;;2.90;2.70;;;;;;;;;;5117949;28;20586;-59
2022/07/14 07:47:18;;;;;;;4.43;2.78;;;;;;;;;;5104492;28;20235;-59
2022/07/14 07:49:47;;;;;;;3.42;2.95;;;;;;;;;;5093553;28;20241;-59
2022/07/14 07:52:15;;;;;;;2.92;2.72;;;;;;;;;;5097107;28;20619;-59
2022/07/14 07:54:44;;;;;;;3.83;2.40;;;;;;;;;;5101514;28;20224;-59
2022/07/14 07:57:32;;;;;;;5.40;2.90;;;;;;;;;;5100754;28;20212;-60
2022/07/14 08:00:00;;;;;;;3.83;2.95;;;;;;;;;;5101328;28;20636;-60
2022/07/14 08:02:28;;;;;;;2.50;2.30;;;;;;;;;;5101381;28;20262;-59
2022/07/14 08:04:58;;;;;;;5.05;2.72;;;;;;;;;;5101609;28;20252;-59
2022/07/14 08:07:25;;;;;;;3.67;3.20;;;;;;;;;;5101599;28;20208;-59
2022/07/14 08:09:53;;;;;;;3.75;2.80;;;;;;;;;;5101623;28;20243;-59
2022/07/14 08:12:26;;;;;;;4.35;3.08;;;;;;;;;;5101419;28;20288;-59
2022/07/14 08:14:54;;;;;;;6.35;2.88;;;;;;;;;;5101045;28;20221;-58
2022/07/14 08:17:22;;;;;;;3.85;3.22;;;;;;;;;;5103433;28;20225;-58
2022/07/14 08:19:51;;;;;;;2.85;2.40;;;;;;;;;;5101145;28;20308;-59
2022/07/14 08:22:30;;;;;;;3.72;2.83;;;;;;;;;;5101333;28;20225;-58
2022/07/14 08:24:58;;;;;;;4.53;2.55;;;;;;;;;;5102058;28;20213;-58
2022/07/14 08:27:27;;;;;;;2.83;2.50;;;;;;;;;;5110065;28;20201;-59
2022/07/14 08:29:55;;;;;;;3.35;2.47;;;;;;;;;;5121100;28;20216;-59
2022/07/14 08:32:39;;;;;;;4.00;2.83;;;;;;;;;;5121505;28;20208;-59
2022/07/14 08:35:08;;;;;;;2.50;2.40;;;;;;;;;;5106413;28;20208;-59
2022/07/14 08:37:38;;;;;;;2.72;2.42;;;;;;;;;;5105737;28;20200;-59
2022/07/14 08:40:07;;;;;;;2.35;2.25;;;;;;;;;;5105657;28;20193;-59
2022/07/14 08:42:35;;;;;;;7.50;2.92;;;;;;;;;;5091070;28;20205;-59
2022/07/14 08:45:06;;;;;;;7.05;2.15;;;;;;;;;;5096010;28;20325;-59
2022/07/14 08:47:35;;;;;;;3.92;2.10;;;;;;;;;;5103396;28;20672;-58
2022/07/14 08:50:04;;;;;;;4.20;2.75;;;;;;;;;;5100578;28;20729;-59
2022/07/14 08:52:32;;;;;;;5.13;2.75;;;;;;;;;;5103607;28;20656;-59
2022/07/14 08:55:01;;;;;;;3.35;3.05;;;;;;;;;;5100090;28;20248;-58
2022/07/14 08:57:30;;;;;;;3.55;3.25;;;;;;;;;;5095509;28;20205;-59
2022/07/14 08:59:58;;;;;;;5.53;3.58;;;;;;;;;;5090456;28;20245;-59
2022/07/14 09:02:26;;;;;;;5.18;3.53;;;;;;;;;;5115064;28;20212;-60
2022/07/14 09:04:55;;;;;;;3.50;3.00;;;;;;;;;;5101807;28;20213;-57
2022/07/14 09:07:32;;;;;;;4.00;3.67;;;;;;;;;;5095942;28;20220;-59
2022/07/14 09:10:03;;;;;;;3.45;3.15;;;;;;;;;;5095112;28;20560;-59
2022/07/14 09:12:31;;;;;;;4.03;3.13;;;;;;;;;;5098974;28;20246;-59
2022/07/14 09:17:51;;;;;;;2.35;2.15;;;;;;;;;;5092954;28;20675;-59
2022/07/14 09:20:20;;;;;;;2.10;2.00;;;;;;;;;;5099002;28;20216;-59
2022/07/14 09:22:49;;;;;;;2.60;2.10;;;;;;;;;;5089146;28;20229;-59
2022/07/14 09:25:18;;;;;;;3.67;2.40;;;;;;;;;;5083664;28;20563;-59
2022/07/14 09:27:47;;;;;;;2.50;2.15;;;;;;;;;;5086401;28;20228;-59
2022/07/14 09:30:15;;;;;;;2.65;2.40;;;;;;;;;;5103405;28;20231;-59
2022/07/14 09:32:55;;;;;;;2.13;2.00;;;;;;;;;;5099138;28;20193;-59
2022/07/14 09:35:25;;;;;;;1.90;1.73;;;;;;;;;;5096499;28;20606;-58
2022/07/14 09:37:53;;;;;;;2.00;1.90;;;;;;;;;;5107341;28;20204;-58
2022/07/14 09:40:25;;;;;;;2.63;2.42;;;;;;;;;;5101137;28;20633;-58
2022/07/14 09:43:02;;;;;;;2.15;1.95;;;;;;;;;;5104188;28;20192;-58
2022/07/14 09:45:31;;;;;;;3.13;2.20;;;;;;;;;;5104378;28;20229;-58
2022/07/14 09:48:00;;;;;;;3.65;2.42;;;;;;;;;;5099883;27;20204;-58
2022/07/14 09:50:49;;;;;;;2.80;1.88;;;;;;;;;;5107875;28;20197;-58
2022/07/14 09:53:22;;;;;;;2.42;2.20;;;;;;;;;;5096103;28;20625;-58
2022/07/14 09:55:59;;;;;;;2.05;1.95;;;;;;;;;;5097326;28;20246;-58
2022/07/14 09:58:28;;;;;;;7.28;2.78;;;;;;;;;;5098813;28;20302;-58
2022/07/14 10:01:05;;;;;;;3.28;2.15;;;;;;;;;;5094470;28;20225;-58
2022/07/14 10:03:35;;;;;;;1.88;1.77;;;;;;;;;;5098879;28;20364;-59
2022/07/14 10:06:04;;;;;;;3.92;2.22;;;;;;;;;;5096551;28;20213;-59
2022/07/14 10:08:54;;;;;;;2.97;2.78;;;;;;;;;;5092992;28;20692;-58
2022/07/14 10:11:24;;;;;;;2.20;2.10;;;;;;;;;;5088691;28;20207;-59
2022/07/14 10:13:52;;;;;;;3.88;2.25;;;;;;;;;;5100432;28;20217;-58
2022/07/14 10:16:21;;;;;;;1.83;1.70;;;;;;;;;;5103035;28;20197;-58
2022/07/14 10:18:50;;;;;;;3.20;2.90;;;;;;;;;;5105182;28;20205;-58
2022/07/14 10:21:18;;;;;;;2.35;2.25;;;;;;;;;;5102949;28;20655;-58
2022/07/14 10:23:47;;;;;;;2.83;2.25;;;;;;;;;;5098146;28;20261;-58
2022/07/14 10:26:15;;;;;;;3.00;2.05;;;;;;;;;;5106379;28;20222;-58
2022/07/14 10:28:44;;;;;;;2.65;1.88;;;;;;;;;;5094555;28;20635;-58
2022/07/14 10:31:17;;;;;;;3.80;2.55;;;;;;;;;;5097336;28;20366;-58
2022/07/14 10:33:48;;;;;;;2.47;2.20;;;;;;;;;;5097331;28;20221;-58
2022/07/14 10:36:18;;;;;;;7.13;1.98;;;;;;;;;;5084278;28;20233;-58
2022/07/14 10:38:57;;;;;;;1.70;1.60;;;;;;;;;;5093323;28;20233;-58
2022/07/14 10:41:43;;;;;;;2.88;2.15;;;;;;;;;;5095215;28;20197;-58
2022/07/14 10:44:17;;;;;;;3.35;1.90;;;;;;;;;;5097015;28;20251;-59
2022/07/14 10:46:45;;;;;;;1.83;1.70;;;;;;;;;;5093254;28;20284;-59
2022/07/14 10:49:14;;;;;;;2.67;1.95;;;;;;;;;;5098212;28;20289;-59
2022/07/14 10:51:46;;;;;;;2.40;1.88;;;;;;;;;;5094794;28;20202;-58
2022/07/14 10:54:17;;;;;;;2.75;2.55;;;;;;;;;;5094271;28;20794;-58
2022/07/14 10:57:09;;;;;;;2.85;2.65;;;;;;;;;;5095234;28;20216;-58
2022/07/14 10:59:39;;;;;;;4.85;2.28;;;;;;;;;;5097148;28;20229;-58
2022/07/14 11:02:26;;;;;;;2.83;2.63;;;;;;;;;;5080968;28;20210;-58
2022/07/14 11:05:17;;;;;;;2.30;2.10;;;;;;;;;;5095285;28;20220;-57
2022/07/14 11:07:47;;;;;;;3.05;2.75;;;;;;;;;;5092071;28;20201;-58
2022/07/14 11:10:33;;;;;;;3.40;2.60;;;;;;;;;;5098095;28;20239;-58
2022/07/14 11:13:09;;;;;;;2.88;2.50;;;;;;;;;;5096093;28;20224;-59
2022/07/14 11:15:39;;;;;;;2.30;2.20;;;;;;;;;;5092681;28;20225;-58
2022/07/14 11:18:25;;;;;;;3.72;3.20;;;;;;;;;;5096995;28;20197;-59
2022/07/14 11:20:58;;;;;;;2.60;2.40;;;;;;;;;;5095357;28;20217;-58
2022/07/14 11:23:27;;;;;;;5.82;2.97;;;;;;;;;;5095205;28;20750;-58
2022/07/14 11:25:55;;;;;;;2.30;2.20;;;;;;;;;;5093979;28;20225;-58
2022/07/14 11:28:40;;;;;;;4.07;2.20;;;;;;;;;;5095980;28;20202;-58
2022/07/14 11:31:13;;;;;;;2.50;2.30;;;;;;;;;;5088643;28;20202;-58
2022/07/14 11:36:26;;;;;;;2.40;2.20;;;;;;;;;;5097403;28;20288;-58
2022/07/14 11:39:21;;;;;;;2.30;2.20;;;;;;;;;;5080312;28;20295;-58
2022/07/14 11:41:50;;;;;;;2.15;1.95;;;;;;;;;;5084944;28;20204;-58
2022/07/14 11:44:39;;;;;;;5.53;2.47;;;;;;;;;;5097327;28;20225;-58
2022/07/14 11:47:11;;;;;;;2.30;2.10;;;;;;;;;;5083780;28;20205;-58
2022/07/14 11:49:39;;;;;;;2.63;2.03;;;;;;;;;;5086014;28;20251;-58
2022/07/14 11:52:07;;;;;;;2.10;2.00;;;;;;;;;;5086982;28;20236;-58
2022/07/14 11:54:35;;;;;;;2.50;2.30;;;;;;;;;;5095265;28;20239;-58
2022/07/14 11:57:05;;;;;;;4.15;2.33;;;;;;;;;;5096990;28;20239;-58
2022/07/14 11:59:34;;;;;;;2.22;1.85;;;;;;;;;;5084381;28;20262;-58
2022/07/14 12:02:06;;;;;;;2.30;2.20;;;;;;;;;;5091398;28;20198;-58
2022/07/14 12:04:36;;;;;;;3.65;2.33;;;;;;;;;;5093338;28;20258;-58
2022/07/14 12:07:04;;;;;;;2.30;2.10;;;;;;;;;;5094729;28;20197;-58
2022/07/14 12:09:34;;;;;;;2.28;2.10;;;;;;;;;;5094285;28;20205;-58
2022/07/14 12:12:13;;;;;;;3.13;1.95;;;;;;;;;;5083836;28;20216;-58
2022/07/14 12:14:45;;;;;;;2.20;2.00;;;;;;;;;;5090071;28;20222;-59
2022/07/14 12:17:13;;;;;;;2.13;2.00;;;;;;;;;;5079995;28;20216;-60
2022/07/14 12:19:42;;;;;;;2.55;1.95;;;;;;;;;;5096441;28;20209;-61
2022/07/14 12:22:10;;;;;;;7.97;2.22;;;;;;;;;;5095652;28;20267;-60
2022/07/14 12:24:39;;;;;;;1.88;1.77;;;;;;;;;;5087011;28;20226;-60
2022/07/14 12:27:08;;;;;;;2.20;1.80;;;;;;;;;;5083385;28;20211;-61
2022/07/14 12:29:37;;;;;;;2.70;1.60;;;;;;;;;;5086532;28;20209;-61
2022/07/14 12:32:05;;;;;;;2.13;1.92;;;;;;;;;;5082576;28;20255;-60
2022/07/14 12:34:33;;;;;;;2.10;1.90;;;;;;;;;;5079082;28;20230;-60
2022/07/14 12:37:04;;;;;;;1.92;1.83;;;;;;;;;;5083590;28;20235;-61
2022/07/14 12:39:33;;;;;;;2.60;1.98;;;;;;;;;;5093019;28;20735;-60
2022/07/14 12:42:02;;;;;;;3.83;2.00;;;;;;;;;;5099454;28;20636;-61
2022/07/14 12:44:31;;;;;;;4.65;2.17;;;;;;;;;;5100434;28;20234;-61
2022/07/14 12:47:06;;;;;;;2.80;2.22;;;;;;;;;;5087942;28;20209;-61
2022/07/14 12:49:42;;;;;;;2.08;1.98;;;;;;;;;;5099422;28;20266;-61
2022/07/14 12:52:11;;;;;;;2.38;2.17;;;;;;;;;;5092774;28;20259;-61
2022/07/14 12:54:40;;;;;;;6.45;2.30;;;;;;;;;;5099980;28;20264;-61
2022/07/14 12:57:33;;;;;;;2.08;1.88;;;;;;;;;;5091392;28;20228;-61
2022/07/14 13:00:10;;;;;;;4.03;1.85;;;;;;;;;;5099795;28;20205;-61
2022/07/14 13:02:39;;;;;;;2.10;1.90;;;;;;;;;;5100031;28;20212;-60
2022/07/14 13:05:10;;;;;;;4.18;2.08;;;;;;;;;;5087743;28;20209;-61
2022/07/14 13:07:40;;;;;;;2.42;2.17;;;;;;;;;;5099200;28;20664;-60
2022/07/14 13:10:09;;;;;;;2.00;1.90;;;;;;;;;;5100506;28;20270;-61
2022/07/14 13:12:39;;;;;;;6.57;2.50;;;;;;;;;;5099710;28;20631;-60
2022/07/14 13:15:09;;;;;;;3.40;2.20;;;;;;;;;;5082913;28;20665;-60
2022/07/14 13:17:54;;;;;;;2.08;1.83;;;;;;;;;;5080059;28;20244;-60
2022/07/14 13:20:41;;;;;;;2.97;1.92;;;;;;;;;;5084286;28;20213;-60
2022/07/14 13:23:19;;;;;;;2.00;1.90;;;;;;;;;;5098770;28;20269;-60
2022/07/14 13:25:47;;;;;;;2.25;2.03;;;;;;;;;;5099848;28;20250;-62
2022/07/14 13:28:21;;;;;;;2.80;2.60;;;;;;;;;;5099570;28;20217;-60
2022/07/14 13:30:48;;;;;;;2.08;1.90;;;;;;;;;;5094288;28;20201;-60
2022/07/14 13:33:16;;;;;;;6.18;2.50;;;;;;;;;;5098741;28;20221;-60
2022/07/14 13:35:44;;;;;;;2.58;1.90;;;;;;;;;;5090278;28;20237;-60
2022/07/14 13:38:14;;;;;;;5.18;2.20;;;;;;;;;;5096886;28;20201;-60
2022/07/14 13:40:42;;;;;;;2.60;2.40;;;;;;;;;;5089378;28;20229;-60
2022/07/14 13:43:10;;;;;;;2.88;2.15;;;;;;;;;;5097340;28;20253;-60
2022/07/14 13:45:38;;;;;;;2.33;1.80;;;;;;;;;;5098136;28;20572;-60
2022/07/14 13:48:06;;;;;;;2.58;2.13;;;;;;;;;;5092297;28;20721;-61
2022/07/14 13:53:21;;;;;;;3.33;2.50;;;;;;;;;;5092337;28;20217;-61
2022/07/14 13:55:50;;;;;;;2.50;2.30;;;;;;;;;;5098579;28;20201;-62
2022/07/14 13:58:18;;;;;;;1.92;1.83;;;;;;;;;;5099168;28;20200;-62
2022/07/14 14:00:46;;;;;;;2.60;2.20;;;;;;;;;;5098164;28;20624;-62
2022/07/14 14:03:23;;;;;;;3.47;2.20;;;;;;;;;;5097903;28;20229;-62
2022/07/14 14:05:52;;;;;;;4.70;2.05;;;;;;;;;;5088678;28;20205;-62
2022/07/14 14:08:21;;;;;;;2.35;2.15;;;;;;;;;;5099025;28;20236;-62
2022/07/14 14:10:50;;;;;;;5.88;2.17;;;;;;;;;;5099519;28;20255;-62
2022/07/14 14:13:18;;;;;;;2.85;1.98;;;;;;;;;;5097961;28;20275;-62
2022/07/14 14:15:47;;;;;;;2.10;2.00;;;;;;;;;;5086189;28;20234;-62
2022/07/14 14:18:15;;;;;;;2.60;2.00;;;;;;;;;;5098245;28;20216;-62
2022/07/14 14:20:44;;;;;;;2.17;1.92;;;;;;;;;;5097787;28;20209;-62
2022/07/14 14:23:12;;;;;;;2.53;2.33;;;;;;;;;;5092677;28;20245;-62
2022/07/14 14:25:44;;;;;;;4.80;2.22;;;;;;;;;;5085708;28;20681;-62
2022/07/14 14:28:12;;;;;;;2.50;2.10;;;;;;;;;;5097152;28;20236;-62
2022/07/14 14:30:40;;;;;;;2.17;1.98;;;;;;;;;;5084933;28;20227;-62
2022/07/14 14:33:08;;;;;;;2.17;2.08;;;;;;;;;;5093428;28;20268;-62
2022/07/14 14:35:36;;;;;;;2.53;2.30;;;;;;;;;;5090185;28;20206;-62
2022/07/14 14:38:06;;;;;;;3.20;2.03;;;;;;;;;;5092368;28;20247;-62
2022/07/14 14:40:34;;;;;;;3.40;2.20;;;;;;;;;;5088319;28;20684;-62
2022/07/14 14:43:05;;;;;;;2.83;1.95;;;;;;;;;;5098705;28;20264;-62
2022/07/14 14:45:33;;;;;;;2.50;2.20;;;;;;;;;;5098624;28;20205;-62
2022/07/14 14:48:01;;;;;;;2.30;2.10;;;;;;;;;;5094676;28;20618;-62
2022/07/14 14:50:29;;;;;;;3.20;2.10;;;;;;;;;;5098152;28;20201;-62
2022/07/14 14:52:57;;;;;;;3.33;2.47;;;;;;;;;;5101217;28;20242;-62
2022/07/14 14:55:25;;;;;;;2.40;2.20;;;;;;;;;;5090219;28;20247;-62
2022/07/14 14:57:53;;;;;;;3.85;2.20;;;;;;;;;;5079036;28;20234;-62
2022/07/14 15:00:22;;;;;;;2.33;2.20;;;;;;;;;;5084752;28;20210;-62
2022/07/14 15:02:50;;;;;;;4.03;2.10;;;;;;;;;;5084734;28;20221;-62
2022/07/14 15:05:18;;;;;;;3.25;2.42;;;;;;;;;;5084627;28;20202;-62
2022/07/14 15:07:46;;;;;;;2.50;1.90;;;;;;;;;;5097881;28;20240;-62
2022/07/14 15:10:14;;;;;;;2.22;2.03;;;;;;;;;;5097044;28;20209;-62
2022/07/14 15:12:46;;;;;;;2.60;2.20;;;;;;;;;;5084706;28;20668;-62
2022/07/14 15:15:15;;;;;;;2.63;2.17;;;;;;;;;;5096305;28;20745;-62